createdAt,value
2018-01-24T00:02:26.058Z,100808.95
2018-01-24T00:04:54.389Z,100806.97
2018-01-24T00:07:22.058Z,100804.42
2018-01-24T00:09:49.535Z,100807.05
2018-01-24T00:12:17.035Z,100802.94
2018-01-24T00:14:44.575Z,100814.38
2018-01-24T00:17:13.134Z,100804.91
2018-01-24T00:19:40.788Z,100810.70
2018-01-24T00:22:08.317Z,100798.63
2018-01-24T00:24:35.809Z,100796.61
2018-01-24T00:27:03.287Z,100798.09
2018-01-24T00:29:30.760Z,100801.87
2018-01-24T00:31:58.227Z,100805.61
2018-01-24T00:34:25.695Z,100805.70
2018-01-24T00:36:53.202Z,100812.16
2018-01-24T00:39:20.662Z,100806.20
2018-01-24T00:41:48.158Z,100800.06
2018-01-24T00:44:15.660Z,100796.41
2018-01-24T00:46:43.223Z,100787.38
2018-01-24T00:49:10.697Z,100795.61
2018-01-24T00:51:38.173Z,100804.44
2018-01-24T00:54:05.708Z,100812.70
2018-01-24T00:56:33.167Z,100814.23
2018-01-24T00:59:00.934Z,100809.44
2018-01-24T01:01:28.431Z,100810.19
2018-01-24T01:03:55.927Z,100806.77
2018-01-24T01:06:23.423Z,100802.05
2018-01-24T01:08:50.892Z,100802.27
2018-01-24T01:11:18.460Z,100796.95
2018-01-24T01:13:45.922Z,100790.38
2018-01-24T01:16:13.487Z,100799.00
2018-01-24T01:18:40.962Z,100804.94
2018-01-24T01:21:08.437Z,100811.33
2018-01-24T01:23:35.909Z,100802.63
2018-01-24T01:26:03.389Z,100802.09
2018-01-24T01:28:30.919Z,100798.03
2018-01-24T01:30:58.382Z,100802.66
2018-01-24T01:33:25.855Z,100810.33
2018-01-24T01:35:53.344Z,100803.61
2018-01-24T01:38:20.823Z,100797.28
2018-01-24T01:40:48.303Z,100795.96
2018-01-24T01:43:15.770Z,100790.17
2018-01-24T01:45:43.275Z,100800.88
2018-01-24T01:48:10.744Z,100795.84
2018-01-24T01:50:38.232Z,100797.35
2018-01-24T01:53:05.748Z,100795.75
2018-01-24T01:55:33.226Z,100794.59
2018-01-24T01:58:00.783Z,100798.83
2018-01-24T02:00:28.234Z,100797.92
2018-01-24T02:02:55.693Z,100798.05
2018-01-24T02:05:23.176Z,100789.17
2018-01-24T02:07:50.665Z,100783.73
2018-01-24T02:10:18.165Z,100792.26
2018-01-24T02:12:45.628Z,100783.05
2018-01-24T02:15:13.161Z,100781.79
2018-01-24T02:17:40.648Z,100780.84
2018-01-24T02:20:08.158Z,100780.88
2018-01-24T02:22:35.642Z,100781.82
2018-01-24T02:25:03.149Z,100791.86
2018-01-24T02:27:30.619Z,100791.70
2018-01-24T02:29:58.111Z,100784.91
2018-01-24T02:32:25.556Z,100775.94
2018-01-24T02:34:53.066Z,100768.29
2018-01-24T02:37:20.533Z,100771.19
2018-01-24T02:39:47.997Z,100770.97
2018-01-24T02:42:20.397Z,100784.88
2018-01-24T02:44:47.943Z,100775.40
2018-01-24T02:47:15.397Z,100767.62
2018-01-24T02:49:42.934Z,100768.16
2018-01-24T02:52:10.396Z,100766.70
2018-01-24T02:54:37.899Z,100769.80
2018-01-24T02:57:05.366Z,100782.63
2018-01-24T02:59:32.902Z,100781.59
2018-01-24T03:02:00.362Z,100800.28
2018-01-24T03:04:27.907Z,100790.91
2018-01-24T03:06:55.390Z,100795.81
2018-01-24T03:09:22.893Z,100798.20
2018-01-24T03:11:50.359Z,100789.20
2018-01-24T03:14:17.811Z,100780.11
2018-01-24T03:16:45.276Z,100789.80
2018-01-24T03:19:12.778Z,100775.44
2018-01-24T03:21:40.366Z,100770.94
2018-01-24T03:24:07.949Z,100772.66
2018-01-24T03:26:35.477Z,100776.84
2018-01-24T03:29:03.082Z,100781.66
2018-01-24T03:31:30.531Z,100781.98
2018-01-24T03:33:58.087Z,100802.54
2018-01-24T03:36:25.535Z,100797.84
2018-01-24T03:38:53.093Z,100796.42
2018-01-24T03:41:20.679Z,100799.77
2018-01-24T03:43:48.149Z,100796.70
2018-01-24T03:46:15.630Z,100795.64
2018-01-24T03:48:43.086Z,100804.92
2018-01-24T03:51:10.570Z,100806.37
2018-01-24T03:53:38.022Z,100806.63
2018-01-24T03:56:05.512Z,100800.67
2018-01-24T03:58:33.586Z,100804.01
2018-01-24T04:01:01.040Z,100798.90
2018-01-24T04:03:28.527Z,100801.02
2018-01-24T04:05:55.991Z,100794.45
2018-01-24T04:08:23.468Z,100791.83
2018-01-24T04:10:50.926Z,100802.29
2018-01-24T04:13:18.419Z,100805.24
2018-01-24T04:15:45.849Z,100791.09
2018-01-24T04:18:13.371Z,100796.66
2018-01-24T04:20:40.819Z,100789.52
2018-01-24T04:23:08.292Z,100796.38
2018-01-24T04:25:35.736Z,100790.46
2018-01-24T04:28:03.202Z,100790.86
2018-01-24T04:30:30.650Z,100797.73
2018-01-24T04:32:58.110Z,100803.28
2018-01-24T04:35:25.563Z,100796.80
2018-01-24T04:37:53.059Z,100803.69
2018-01-24T04:40:20.533Z,100794.68
2018-01-24T04:42:49.113Z,100798.91
2018-01-24T04:45:16.605Z,100794.96
2018-01-24T04:47:44.132Z,100801.83
2018-01-24T04:50:11.578Z,100789.39
2018-01-24T04:52:39.026Z,100788.38
2018-01-24T04:55:06.523Z,100777.44
2018-01-24T04:57:34.899Z,100777.94
2018-01-24T05:00:02.381Z,100776.36
2018-01-24T05:02:29.832Z,100782.47
2018-01-24T05:04:57.324Z,100782.59
2018-01-24T05:07:24.815Z,100789.44
2018-01-24T05:09:52.420Z,100787.86
2018-01-24T05:12:19.910Z,100789.82
2018-01-24T05:14:47.374Z,100788.67
2018-01-24T05:17:14.867Z,100793.73
2018-01-24T05:19:42.446Z,100798.77
2018-01-24T05:22:09.911Z,100794.45
2018-01-24T05:24:37.392Z,100795.09
2018-01-24T05:27:09.981Z,100793.36
2018-01-24T05:29:37.436Z,100798.88
2018-01-24T05:32:04.950Z,100802.06
2018-01-24T05:34:32.721Z,100793.44
2018-01-24T05:36:59.977Z,100783.11
2018-01-24T05:39:27.449Z,100779.80
2018-01-24T05:41:54.915Z,100780.56
2018-01-24T05:44:22.468Z,100783.05
2018-01-24T05:46:49.983Z,100773.52
2018-01-24T05:49:18.383Z,100768.60
2018-01-24T05:51:45.938Z,100768.78
2018-01-24T05:54:13.554Z,100777.13
2018-01-24T05:56:41.016Z,100781.09
2018-01-24T05:59:08.468Z,100787.81
2018-01-24T06:01:35.987Z,100788.34
2018-01-24T06:04:03.514Z,100793.77
2018-01-24T06:06:30.977Z,100797.73
2018-01-24T06:08:58.484Z,100799.34
2018-01-24T06:11:26.009Z,100806.23
2018-01-24T06:13:53.608Z,100806.87
2018-01-24T06:16:21.142Z,100800.41
2018-01-24T06:18:49.214Z,100802.16
2018-01-24T06:21:16.757Z,100805.63
2018-01-24T06:23:45.342Z,100798.66
2018-01-24T06:26:13.023Z,100802.34
2018-01-24T06:28:40.603Z,100798.75
2018-01-24T06:31:08.171Z,100795.34
2018-01-24T06:33:35.735Z,100800.23
2018-01-24T06:36:03.316Z,100806.44
2018-01-24T06:38:30.797Z,100816.48
2018-01-24T06:40:58.292Z,100819.00
2018-01-24T06:43:25.782Z,100825.77
2018-01-24T06:45:53.615Z,100836.11
2018-01-24T06:48:21.094Z,100833.97
2018-01-24T06:50:48.625Z,100833.15
2018-01-24T06:53:16.156Z,100836.77
2018-01-24T06:55:43.705Z,100834.78
2018-01-24T06:58:11.290Z,100835.62
2018-01-24T07:00:38.758Z,100837.08
2018-01-24T07:03:06.244Z,100842.62
2018-01-24T07:05:33.702Z,100844.38
2018-01-24T07:08:02.055Z,100843.52
2018-01-24T07:10:29.592Z,100841.27
2018-01-24T07:13:08.931Z,100850.97
2018-01-24T07:15:37.601Z,100842.77
2018-01-24T07:18:10.889Z,100846.00
2018-01-24T07:20:38.390Z,100844.49
2018-01-24T07:23:05.977Z,100846.34
2018-01-24T07:25:33.606Z,100845.60
2018-01-24T07:28:01.123Z,100845.64
2018-01-24T07:30:28.706Z,100849.92
2018-01-24T07:32:56.222Z,100853.67
2018-01-24T07:35:23.936Z,100861.10
2018-01-24T07:37:51.865Z,100849.08
2018-01-24T07:40:19.594Z,100854.50
2018-01-24T07:48:32.083Z,100841.39
2018-01-24T07:50:59.849Z,100848.97
2018-01-24T07:53:27.368Z,100843.80
2018-01-24T07:55:54.940Z,100839.01
2018-01-24T07:58:22.470Z,100839.39
2018-01-24T08:00:50.107Z,100848.22
2018-01-24T08:03:17.674Z,100845.17
2018-01-24T08:05:45.443Z,100840.91
2018-01-24T08:08:12.959Z,100830.85
2018-01-24T08:10:40.569Z,100826.50
2018-01-24T08:13:08.153Z,100827.30
2018-01-24T08:15:35.653Z,100830.23
2018-01-24T08:18:03.139Z,100821.36
2018-01-24T08:20:30.850Z,100837.25
2018-01-24T08:22:58.333Z,100836.04
2018-01-24T08:25:25.915Z,100842.16
2018-01-24T08:27:54.071Z,100835.14
2018-01-24T08:30:21.611Z,100845.89
2018-01-24T08:32:49.165Z,100851.32
2018-01-24T08:35:16.721Z,100865.35
2018-01-24T08:37:44.237Z,100853.17
2018-01-24T08:40:11.710Z,100850.30
2018-01-24T08:42:39.253Z,100846.48
2018-01-24T08:45:06.914Z,100843.59
2018-01-24T08:47:34.553Z,100840.30
2018-01-24T08:50:02.751Z,100843.81
2018-01-24T08:52:30.234Z,100837.90
2018-01-24T08:54:57.697Z,100844.44
2018-01-24T08:57:25.399Z,100839.70
2018-01-24T08:59:52.943Z,100840.66
2018-01-24T09:02:20.909Z,100849.98
2018-01-24T09:04:49.631Z,100844.22
2018-01-24T09:07:17.776Z,100845.98
2018-01-24T09:09:45.315Z,100843.50
2018-01-24T09:12:14.051Z,100844.28
2018-01-24T09:14:41.591Z,100846.14
2018-01-24T09:17:09.084Z,100842.03
2018-01-24T09:19:36.666Z,100833.92
2018-01-24T09:22:04.138Z,100828.75
2018-01-24T09:24:31.653Z,100821.06
2018-01-24T09:26:59.191Z,100814.95
2018-01-24T09:29:26.707Z,100819.88
2018-01-24T09:31:54.286Z,100825.98
2018-01-24T09:34:21.814Z,100828.23
2018-01-24T09:36:49.365Z,100828.64
2018-01-24T09:39:16.934Z,100819.91
2018-01-24T09:41:44.549Z,100823.08
2018-01-24T09:44:12.432Z,100822.53
2018-01-24T09:46:39.893Z,100804.91
2018-01-24T09:49:07.424Z,100816.30
2018-01-24T09:51:34.994Z,100813.64
2018-01-24T09:54:02.464Z,100816.58
2018-01-24T09:56:30.098Z,100816.06
2018-01-24T09:58:57.668Z,100811.84
2018-01-24T10:01:25.154Z,100804.69
2018-01-24T10:03:52.800Z,100804.69
2018-01-24T10:06:20.364Z,100807.88
2018-01-24T10:08:47.920Z,100812.00
2018-01-24T10:11:15.454Z,100812.97
2018-01-24T10:13:42.936Z,100808.72
2018-01-24T10:16:10.470Z,100807.55
2018-01-24T10:18:40.024Z,100802.61
2018-01-24T10:21:09.067Z,100802.11
2018-01-24T10:23:38.309Z,100810.31
2018-01-24T10:26:07.527Z,100812.32
2018-01-24T10:28:36.748Z,100808.61
2018-01-24T10:31:05.861Z,100806.33
2018-01-24T10:33:33.446Z,100798.48
2018-01-24T10:36:01.178Z,100793.44
2018-01-24T10:38:28.813Z,100795.18
2018-01-24T10:40:56.458Z,100795.56
2018-01-24T10:43:24.065Z,100782.54
2018-01-24T10:45:51.604Z,100786.52
2018-01-24T10:48:19.181Z,100781.62
2018-01-24T10:50:46.727Z,100777.09
2018-01-24T10:53:14.253Z,100775.89
2018-01-24T10:55:41.797Z,100776.70
2018-01-24T10:58:09.314Z,100763.78
2018-01-24T11:00:36.816Z,100761.24
2018-01-24T11:03:04.354Z,100763.24
2018-01-24T11:05:31.920Z,100755.63
2018-01-24T11:07:59.417Z,100754.97
2018-01-24T11:10:26.973Z,100749.08
2018-01-24T11:12:54.536Z,100743.02
2018-01-24T11:15:22.028Z,100725.45
2018-01-24T11:17:49.570Z,100717.38
2018-01-24T11:20:17.163Z,100710.56
2018-01-24T11:22:44.657Z,100705.91
2018-01-24T11:25:12.228Z,100697.28
2018-01-24T11:27:39.770Z,100697.71
2018-01-24T11:30:07.544Z,100684.70
2018-01-24T11:32:35.053Z,100687.85
2018-01-24T11:35:02.578Z,100685.23
2018-01-24T11:37:30.110Z,100699.89
2018-01-24T11:39:57.679Z,100681.39
2018-01-24T11:42:25.192Z,100691.72
2018-01-24T11:44:52.679Z,100690.20
2018-01-24T11:47:20.205Z,100676.59
2018-01-24T11:49:47.787Z,100686.20
2018-01-24T11:52:15.330Z,100681.98
2018-01-24T11:54:42.838Z,100667.56
2018-01-24T11:57:10.467Z,100668.45
2018-01-24T11:59:37.958Z,100668.56
2018-01-24T12:02:05.524Z,100660.36
2018-01-24T12:04:33.056Z,100644.83
2018-01-24T12:07:00.512Z,100647.70
2018-01-24T12:09:28.093Z,100647.92
2018-01-24T12:11:55.680Z,100639.95
2018-01-24T12:14:23.367Z,100639.96
2018-01-24T12:16:50.945Z,100637.68
2018-01-24T12:19:18.544Z,100639.30
2018-01-24T12:21:46.219Z,100636.91
2018-01-24T12:24:13.694Z,100637.31
2018-01-24T12:26:41.342Z,100629.95
2018-01-24T12:29:08.992Z,100625.55
2018-01-24T12:31:36.642Z,100625.39
2018-01-24T12:34:04.173Z,100626.66
2018-01-24T12:36:33.923Z,100632.47
2018-01-24T12:39:01.490Z,100623.42
2018-01-24T12:41:28.979Z,100623.25
2018-01-24T12:43:57.612Z,100625.97
2018-01-24T12:46:25.222Z,100618.78
2018-01-24T12:48:52.774Z,100625.42
2018-01-24T12:51:20.350Z,100614.75
2018-01-24T12:53:48.200Z,100619.55
2018-01-24T12:56:15.686Z,100619.48
2018-01-24T12:58:43.314Z,100605.76
2018-01-24T13:01:10.896Z,100598.84
2018-01-24T13:03:38.384Z,100597.70
2018-01-24T13:06:06.179Z,100601.28
2018-01-24T13:08:33.783Z,100602.36
2018-01-24T13:11:01.330Z,100591.88
2018-01-24T13:13:29.123Z,100579.91
2018-01-24T13:15:56.697Z,100575.66
2018-01-24T13:18:24.299Z,100569.08
2018-01-24T13:20:51.840Z,100562.26
2018-01-24T13:23:19.601Z,100573.81
2018-01-24T13:25:47.153Z,100564.11
2018-01-24T13:28:14.714Z,100571.58
2018-01-24T13:30:42.182Z,100563.67
2018-01-24T13:33:09.671Z,100565.14
2018-01-24T13:35:37.158Z,100561.72
2018-01-24T13:38:04.749Z,100564.00
2018-01-24T13:40:32.588Z,100564.98
2018-01-24T13:43:00.155Z,100558.70
2018-01-24T13:45:27.677Z,100559.51
2018-01-24T13:47:55.294Z,100553.52
2018-01-24T13:50:22.830Z,100546.08
2018-01-24T13:52:50.394Z,100536.49
2018-01-24T13:55:17.982Z,100536.02
2018-01-24T13:57:45.598Z,100531.30
2018-01-24T14:00:13.137Z,100520.22
2018-01-24T14:02:41.517Z,100520.97
2018-01-24T14:05:09.084Z,100517.79
2018-01-24T14:07:37.450Z,100512.03
2018-01-24T14:10:05.228Z,100506.53
2018-01-24T14:12:32.982Z,100503.69
2018-01-24T14:15:00.548Z,100505.66
2018-01-24T14:17:28.182Z,100501.02
2018-01-24T14:19:55.847Z,100487.04
2018-01-24T14:22:23.385Z,100486.81
2018-01-24T14:24:50.911Z,100490.72
2018-01-24T14:27:18.384Z,100496.05
2018-01-24T14:29:45.932Z,100476.16
2018-01-24T14:32:13.565Z,100484.61
2018-01-24T14:34:41.296Z,100479.05
2018-01-24T14:37:08.800Z,100471.26
2018-01-24T14:39:36.355Z,100476.64
2018-01-24T14:42:03.899Z,100488.23
2018-01-24T14:44:31.545Z,100486.95
2018-01-24T14:46:59.226Z,100481.43
2018-01-24T14:49:26.787Z,100486.98
2018-01-24T14:51:54.289Z,100486.63
2018-01-24T14:54:21.885Z,100478.55
2018-01-24T14:56:49.480Z,100482.83
2018-01-24T14:59:16.957Z,100470.83
2018-01-24T15:01:44.705Z,100462.47
2018-01-24T15:04:12.392Z,100465.39
2018-01-24T15:06:39.994Z,100455.81
2018-01-24T15:09:08.435Z,100465.55
2018-01-24T15:11:36.137Z,100460.75
2018-01-24T15:14:03.680Z,100450.92
2018-01-24T15:16:31.204Z,100444.81
2018-01-24T15:19:00.064Z,100449.14
2018-01-24T15:21:27.940Z,100444.53
2018-01-24T15:23:55.447Z,100436.19
2018-01-24T15:26:23.164Z,100431.66
2018-01-24T15:28:50.696Z,100431.94
2018-01-24T15:31:18.233Z,100436.03
2018-01-24T15:33:45.885Z,100429.83
2018-01-24T15:36:13.484Z,100420.98
2018-01-24T15:38:41.073Z,100417.70
2018-01-24T15:41:08.527Z,100421.34
2018-01-24T15:43:36.051Z,100415.50
2018-01-24T15:46:03.639Z,100420.06
2018-01-24T15:48:31.133Z,100408.77
2018-01-24T15:50:58.755Z,100400.55
2018-01-24T15:53:26.300Z,100403.63
2018-01-24T15:55:54.081Z,100391.83
2018-01-24T15:58:21.617Z,100384.75
2018-01-24T16:00:49.090Z,100381.19
2018-01-24T16:03:16.544Z,100382.02
2018-01-24T16:05:44.042Z,100380.69
2018-01-24T16:08:11.828Z,100382.30
2018-01-24T16:10:39.443Z,100376.22
2018-01-24T16:13:06.954Z,100375.32
2018-01-24T16:15:34.630Z,100382.22
2018-01-24T16:18:02.208Z,100391.06
2018-01-24T16:20:29.776Z,100378.41
2018-01-24T16:22:57.418Z,100377.37
2018-01-24T16:25:24.999Z,100376.98
2018-01-24T16:27:52.535Z,100381.66
2018-01-24T16:30:20.262Z,100377.56
2018-01-24T16:32:48.104Z,100384.76
2018-01-24T16:35:16.457Z,100381.43
2018-01-24T16:37:44.020Z,100384.90
2018-01-24T16:40:11.718Z,100379.16
2018-01-24T16:42:39.304Z,100378.77
2018-01-24T16:45:06.873Z,100380.50
2018-01-24T16:47:34.391Z,100380.53
2018-01-24T16:50:01.972Z,100384.91
2018-01-24T16:52:29.608Z,100389.42
2018-01-24T16:54:57.204Z,100394.33
2018-01-24T16:57:24.737Z,100390.11
2018-01-24T16:59:52.278Z,100388.09
2018-01-24T17:02:20.206Z,100385.86
2018-01-24T17:04:47.724Z,100380.67
2018-01-24T17:07:15.275Z,100378.95
2018-01-24T17:09:42.842Z,100371.91
2018-01-24T17:12:10.447Z,100379.23
2018-01-24T17:14:38.070Z,100372.57
2018-01-24T17:17:05.676Z,100369.93
2018-01-24T17:19:33.283Z,100371.67
2018-01-24T17:22:00.847Z,100365.83
2018-01-24T17:24:28.493Z,100371.14
2018-01-24T17:26:56.050Z,100363.44
2018-01-24T17:29:23.687Z,100371.41
2018-01-24T17:31:51.231Z,100372.75
2018-01-24T17:34:18.733Z,100376.20
2018-01-24T17:36:46.293Z,100371.02
2018-01-24T17:39:13.783Z,100371.17
2018-01-24T17:41:41.416Z,100372.52
2018-01-24T17:44:09.004Z,100370.13
2018-01-24T17:46:36.620Z,100371.19
2018-01-24T17:49:04.126Z,100372.39
2018-01-24T17:51:31.594Z,100370.92
2018-01-24T17:53:59.131Z,100369.31
2018-01-24T17:56:26.981Z,100357.62
2018-01-24T17:58:54.667Z,100355.11
2018-01-24T18:01:22.286Z,100350.47
2018-01-24T18:03:49.936Z,100346.20
2018-01-24T18:06:17.503Z,100348.02
2018-01-24T18:08:45.430Z,100339.83
2018-01-24T18:11:13.356Z,100338.99
2018-01-24T18:13:41.194Z,100336.05
2018-01-24T18:16:08.870Z,100335.25
2018-01-24T18:18:36.530Z,100327.14
2018-01-24T18:21:04.015Z,100326.46
2018-01-24T18:23:31.489Z,100319.53
2018-01-24T18:25:59.036Z,100307.95
2018-01-24T18:28:26.551Z,100302.76
2018-01-24T18:30:54.077Z,100313.66
2018-01-24T18:33:21.662Z,100306.23
2018-01-24T18:35:49.313Z,100306.72
2018-01-24T18:38:17.121Z,100296.11
2018-01-24T18:40:44.774Z,100291.78
2018-01-24T18:43:12.698Z,100290.82
2018-01-24T18:45:40.434Z,100289.62
2018-01-24T18:48:08.033Z,100287.10
2018-01-24T18:50:35.660Z,100275.02
2018-01-24T18:53:03.233Z,100276.38
2018-01-24T18:55:31.018Z,100275.31
2018-01-24T18:57:58.531Z,100279.72
2018-01-24T19:00:26.228Z,100281.71
2018-01-24T19:02:53.824Z,100276.78
2018-01-24T19:05:21.324Z,100266.30
2018-01-24T19:07:48.938Z,100257.45
2018-01-24T19:10:16.802Z,100235.05
2018-01-24T19:12:44.787Z,100243.95
2018-01-24T19:15:12.560Z,100233.87
2018-01-24T19:17:40.165Z,100241.05
2018-01-24T19:20:07.695Z,100232.05
2018-01-24T19:22:35.347Z,100242.72
2018-01-24T19:25:03.230Z,100242.86
2018-01-24T19:27:30.904Z,100246.20
2018-01-24T19:29:58.577Z,100241.72
2018-01-24T19:32:26.127Z,100234.41
2018-01-24T19:34:53.779Z,100227.36
2018-01-24T19:37:21.473Z,100220.25
2018-01-24T19:39:49.508Z,100216.70
2018-01-24T19:42:17.171Z,100210.88
2018-01-24T19:44:44.731Z,100209.67
2018-01-24T19:47:12.306Z,100206.16
2018-01-24T19:49:40.809Z,100206.80
2018-01-24T19:52:13.549Z,100209.78
2018-01-24T19:54:41.203Z,100207.95
2018-01-24T19:57:08.807Z,100209.08
2018-01-24T19:59:36.381Z,100207.34
2018-01-24T20:02:04.046Z,100209.08
2018-01-24T20:04:31.616Z,100212.12
2018-01-24T20:06:59.169Z,100215.09
2018-01-24T20:09:27.045Z,100207.27
2018-01-24T20:11:55.855Z,100201.71
2018-01-24T20:14:23.366Z,100201.43
2018-01-24T20:16:51.083Z,100196.67
2018-01-24T20:19:18.625Z,100193.91
2018-01-24T20:21:46.371Z,100191.27
2018-01-24T20:24:13.955Z,100192.02
2018-01-24T20:26:41.528Z,100193.32
2018-01-24T20:29:09.108Z,100191.23
2018-01-24T20:31:36.750Z,100200.12
2018-01-24T20:34:04.743Z,100196.41
2018-01-24T20:36:32.400Z,100199.73
2018-01-24T20:38:59.926Z,100189.01
2018-01-24T20:41:28.184Z,100192.12
2018-01-24T20:43:56.244Z,100193.19
2018-01-24T20:46:23.722Z,100192.27
2018-01-24T20:48:51.772Z,100189.75
2018-01-24T20:51:19.472Z,100187.66
2018-01-24T20:53:47.186Z,100186.99
2018-01-24T20:56:18.363Z,100182.75
2018-01-24T20:58:45.927Z,100176.52
2018-01-24T21:01:13.551Z,100179.67
2018-01-24T21:03:41.019Z,100170.08
2018-01-24T21:06:08.493Z,100167.14
2018-01-24T21:08:36.090Z,100161.98
2018-01-24T21:11:03.690Z,100151.88
2018-01-24T21:13:31.192Z,100153.44
2018-01-24T21:15:58.762Z,100146.27
2018-01-24T21:18:26.317Z,100147.19
2018-01-24T21:20:53.853Z,100144.96
2018-01-24T21:23:21.479Z,100134.98
2018-01-24T21:25:49.050Z,100136.45
2018-01-24T21:28:16.544Z,100132.32
2018-01-24T21:30:55.950Z,100124.50
2018-01-24T21:33:35.497Z,100124.22
2018-01-24T21:36:03.021Z,100122.11
2018-01-24T21:38:30.575Z,100124.08
2018-01-24T21:40:58.163Z,100113.37
2018-01-24T21:43:25.673Z,100118.66
2018-01-24T21:45:54.091Z,100113.69
2018-01-24T21:48:21.647Z,100112.66
2018-01-24T21:50:49.120Z,100109.34
2018-01-24T21:53:16.685Z,100115.42
2018-01-24T21:55:44.199Z,100117.94
2018-01-24T21:58:11.761Z,100114.07
2018-01-24T22:00:39.326Z,100115.14
2018-01-24T22:03:06.803Z,100110.64
2018-01-24T22:05:34.308Z,100113.67
2018-01-24T22:08:01.779Z,100114.63
2018-01-24T22:10:29.244Z,100115.95
2018-01-24T22:12:56.822Z,100109.07
2018-01-24T22:15:24.393Z,100113.34
2018-01-24T22:17:52.702Z,100114.70
2018-01-24T22:20:20.263Z,100108.23
2018-01-24T22:22:47.935Z,100112.68
2018-01-24T22:25:15.434Z,100108.91
2018-01-24T22:27:42.942Z,100119.84
2018-01-24T22:30:10.476Z,100120.66
2018-01-24T22:32:37.942Z,100122.73
2018-01-24T22:35:06.343Z,100124.84
2018-01-24T22:37:33.859Z,100123.29
2018-01-24T22:40:01.378Z,100118.75
2018-01-24T22:42:28.924Z,100114.51
2018-01-24T22:44:56.425Z,100124.70
2018-01-24T22:47:23.909Z,100124.67
2018-01-24T22:49:51.419Z,100126.70
2018-01-24T22:52:19.532Z,100123.29
2018-01-24T22:54:47.007Z,100123.92
2018-01-24T22:57:14.551Z,100129.76
2018-01-24T22:59:42.032Z,100131.11
2018-01-24T23:02:09.694Z,100129.76
2018-01-24T23:04:37.161Z,100130.13
2018-01-24T23:07:05.380Z,100129.55
2018-01-24T23:09:32.859Z,100127.97
2018-01-24T23:12:00.632Z,100127.84
2018-01-24T23:14:28.152Z,100127.36
2018-01-24T23:16:55.677Z,100131.45
2018-01-24T23:19:23.173Z,100131.43
2018-01-24T23:22:10.123Z,100127.70
2018-01-24T23:24:37.777Z,100138.47
2018-01-24T23:27:05.629Z,100142.48
2018-01-24T23:29:33.099Z,100133.17
2018-01-24T23:32:01.299Z,100134.08
2018-01-24T23:34:28.805Z,100133.61
2018-01-24T23:36:56.261Z,100131.95
2018-01-24T23:39:23.741Z,100131.97
2018-01-24T23:41:56.239Z,100129.84
2018-01-24T23:44:23.681Z,100126.92
2018-01-24T23:46:51.159Z,100123.48
2018-01-24T23:49:18.737Z,100123.62
2018-01-24T23:51:47.180Z,100117.28
2018-01-24T23:54:19.015Z,100108.59
2018-01-24T23:56:47.766Z,100098.39
2018-01-24T23:59:15.337Z,100104.08
